KHII/HII METAR and TAF weather

Enter ICAO airport designator
Station Type Date Time Source
KHII METAR 2020/09/22 16:55 UTC NOAA

KHII 221655Z AUTO 19004KT 10SM CLR 33/09 A2995 RMK AO2


Station Type Date Time Source
KHII Decoded METAR 2020/09/22 16:55 UTC NOAA

Station name not available
Sep 22, 2020 - 12:55 PM EDT / 2020.09.22 1655 UTC
Wind: from the S (190 degrees) at 5 MPH (4 KT):0
Visibility: 10 mile(s):0
Sky conditions: clear
Temperature: 91 F (33 C)
Dew Point: 48 F (9 C)
Relative Humidity: 22%
Pressure (altimeter): 29.95 in. Hg (1014 hPa)
ob: KHII 221655Z AUTO 19004KT 10SM CLR 33/09 A2995 RMK AO2
cycle: 17

Station Type Date Time Source
KHII TAF UTC NOAA

Error!

Example: see airport list